createdAt,value
2024-02-06T00:00:31.685Z,27.24
2024-02-06T00:01:31.839Z,27.26
2024-02-06T00:02:31.869Z,27.25
2024-02-06T00:03:31.709Z,27.29
2024-02-06T00:04:31.886Z,27.29
2024-02-06T00:05:31.725Z,27.26
2024-02-06T00:06:31.728Z,27.26
2024-02-06T00:07:35.636Z,27.25
2024-02-06T00:08:31.819Z,27.26
2024-02-06T00:09:31.815Z,27.26
2024-02-06T00:10:31.775Z,27.25
2024-02-06T00:11:31.714Z,27.25
2024-02-06T00:12:31.723Z,27.24
2024-02-06T00:13:31.825Z,27.26
2024-02-06T00:14:31.729Z,27.26
2024-02-06T00:15:31.739Z,27.22
2024-02-06T00:16:31.847Z,27.25
2024-02-06T00:17:31.791Z,27.26
2024-02-06T00:18:31.704Z,27.22
2024-02-06T00:19:31.841Z,27.25
2024-02-06T00:20:31.959Z,27.24
2024-02-06T00:21:31.738Z,27.25
2024-02-06T00:22:31.869Z,27.25
2024-02-06T00:23:31.822Z,27.22
2024-02-06T00:24:31.882Z,27.24
2024-02-06T00:25:32.012Z,27.25
2024-02-06T00:26:31.998Z,27.22
2024-02-06T00:27:32.086Z,27.22
2024-02-06T00:28:32.161Z,27.22
2024-02-06T00:29:32.203Z,27.21
2024-02-06T00:30:32.260Z,27.22
2024-02-06T00:31:32.414Z,27.22
2024-02-06T00:32:32.367Z,27.22
2024-02-06T00:33:32.485Z,27.21
2024-02-06T00:34:32.651Z,27.21
2024-02-06T00:35:32.564Z,27.19
2024-02-06T00:36:32.615Z,27.19
2024-02-06T00:37:32.744Z,27.18
2024-02-06T00:38:32.783Z,27.19
2024-02-06T00:39:32.796Z,27.21
2024-02-06T00:40:33.045Z,27.18
2024-02-06T00:41:32.960Z,27.19
2024-02-06T00:42:33.017Z,27.16
2024-02-06T00:43:33.238Z,27.16
2024-02-06T00:44:33.175Z,27.18
2024-02-06T00:45:33.218Z,27.16
2024-02-06T00:46:33.358Z,27.16
2024-02-06T00:47:33.471Z,27.18
2024-02-06T00:48:33.657Z,27.19
2024-02-06T00:49:33.669Z,27.18
2024-02-06T00:50:33.681Z,27.19
2024-02-06T00:51:33.627Z,27.15
2024-02-06T00:52:33.783Z,27.15
2024-02-06T00:53:33.758Z,27.16
2024-02-06T00:54:33.880Z,27.16
2024-02-06T00:55:33.909Z,27.18
2024-02-06T00:56:33.986Z,27.19
2024-02-06T00:57:34.016Z,27.18
2024-02-06T00:58:34.379Z,27.16
2024-02-06T00:59:34.150Z,27.18
2024-02-06T01:00:34.250Z,27.16
2024-02-06T01:01:34.334Z,27.18
2024-02-06T01:02:34.361Z,27.16
2024-02-06T01:03:34.454Z,27.16
2024-02-06T01:04:34.540Z,27.16
2024-02-06T01:05:34.602Z,27.15
2024-02-06T01:06:34.668Z,27.16
2024-02-06T01:07:34.868Z,27.14
2024-02-06T01:08:34.785Z,27.15
2024-02-06T01:09:34.810Z,27.12
2024-02-06T01:10:35.060Z,27.14
2024-02-06T01:11:34.998Z,27.14
2024-02-06T01:12:35.057Z,27.14
2024-02-06T01:13:35.235Z,27.15
2024-02-06T01:14:35.224Z,27.15
2024-02-06T01:15:35.282Z,27.14
2024-02-06T01:16:35.397Z,27.12
2024-02-06T01:17:35.430Z,27.12
2024-02-06T01:18:35.469Z,27.15
2024-02-06T01:19:35.602Z,27.11
2024-02-06T01:20:35.573Z,27.11
2024-02-06T01:21:35.619Z,27.12
2024-02-06T01:22:35.690Z,27.12
2024-02-06T01:23:35.690Z,27.12
2024-02-06T01:24:35.749Z,27.11
2024-02-06T01:25:35.794Z,27.11
2024-02-06T01:26:35.765Z,27.12
2024-02-06T01:27:35.824Z,27.11
2024-02-06T01:28:35.989Z,27.11
2024-02-06T01:29:35.988Z,27.11
2024-02-06T01:30:35.977Z,27.11
2024-02-06T01:31:35.998Z,27.11
2024-02-06T01:32:36.091Z,27.11
2024-02-06T01:33:36.091Z,27.09
2024-02-06T01:34:36.274Z,27.09
2024-02-06T01:35:36.127Z,27.12
2024-02-06T01:36:36.183Z,27.09
2024-02-06T01:37:36.371Z,27.12
2024-02-06T01:38:36.357Z,27.09
2024-02-06T01:39:36.458Z,27.09
2024-02-06T01:40:36.531Z,27.11
2024-02-06T01:41:36.570Z,27.09
2024-02-06T01:42:36.572Z,27.09
2024-02-06T01:43:36.774Z,27.09
2024-02-06T01:44:36.752Z,27.09
2024-02-06T01:45:36.771Z,27.09
2024-02-06T01:46:36.933Z,27.08
2024-02-06T01:47:36.836Z,27.09
2024-02-06T01:48:36.947Z,27.09
2024-02-06T01:49:36.991Z,27.08
2024-02-06T01:50:36.931Z,27.06
2024-02-06T01:51:36.941Z,27.08
2024-02-06T01:52:37.037Z,27.09
2024-02-06T01:53:37.014Z,27.08
2024-02-06T01:54:37.053Z,27.06
2024-02-06T01:55:37.099Z,27.08
2024-02-06T01:56:37.078Z,27.06
2024-02-06T01:57:37.154Z,27.06
2024-02-06T01:58:37.341Z,27.04
2024-02-06T01:59:37.154Z,27.06
2024-02-06T02:00:37.279Z,27.05
2024-02-06T02:01:37.311Z,27.04
2024-02-06T02:02:37.232Z,27.05
2024-02-06T02:03:37.334Z,27.04
2024-02-06T02:04:37.304Z,27.02
2024-02-06T02:05:37.392Z,27.05
2024-02-06T02:06:37.356Z,27.04
2024-02-06T02:07:37.389Z,27.05
2024-02-06T02:08:37.272Z,27.02
2024-02-06T02:09:37.272Z,27.04
2024-02-06T02:10:37.388Z,27.04
2024-02-06T02:11:37.313Z,27.04
2024-02-06T02:12:37.380Z,27.04
2024-02-06T02:13:37.485Z,27.02
2024-02-06T02:14:37.522Z,27.02
2024-02-06T02:15:37.327Z,27.01
2024-02-06T02:16:37.431Z,27.02
2024-02-06T02:17:37.398Z,26.99
2024-02-06T02:18:37.542Z,27.04
2024-02-06T02:19:37.421Z,27.01
2024-02-06T02:20:37.440Z,27.02
2024-02-06T02:21:37.409Z,27.01
2024-02-06T02:22:37.550Z,27.01
2024-02-06T02:23:37.378Z,27.01
2024-02-06T02:24:37.430Z,26.99
2024-02-06T02:25:37.446Z,26.99
2024-02-06T02:26:37.403Z,26.97
2024-02-06T02:27:37.463Z,27.01
2024-02-06T02:28:37.520Z,27.01
2024-02-06T02:29:37.396Z,26.99
2024-02-06T02:30:37.455Z,27.02
2024-02-06T02:31:37.555Z,26.99
2024-02-06T02:32:37.490Z,26.99
2024-02-06T02:33:37.572Z,27.01
2024-02-06T02:34:37.565Z,26.98
2024-02-06T02:35:37.510Z,27.01
2024-02-06T02:36:37.516Z,26.99
2024-02-06T02:37:37.552Z,26.99
2024-02-06T02:38:37.548Z,26.98
2024-02-06T02:39:37.542Z,26.99
2024-02-06T02:40:37.597Z,26.99
2024-02-06T02:41:37.564Z,26.97
2024-02-06T02:42:37.621Z,26.99
2024-02-06T02:43:37.699Z,26.95
2024-02-06T02:44:37.531Z,26.97
2024-02-06T02:45:37.626Z,26.97
2024-02-06T02:46:37.736Z,26.97
2024-02-06T02:47:37.621Z,26.97
2024-02-06T02:48:37.679Z,26.98
2024-02-06T02:49:37.755Z,26.95
2024-02-06T02:50:37.641Z,26.97
2024-02-06T02:51:37.666Z,26.98
2024-02-06T02:52:37.767Z,26.95
2024-02-06T02:53:37.719Z,26.95
2024-02-06T02:54:37.665Z,26.97
2024-02-06T02:55:37.755Z,26.94
2024-02-06T02:56:37.683Z,26.97
2024-02-06T02:57:37.708Z,26.97
2024-02-06T02:58:37.856Z,26.95
2024-02-06T02:59:37.722Z,26.95
2024-02-06T03:00:37.816Z,26.95
2024-02-06T03:01:37.844Z,26.95
2024-02-06T03:02:37.785Z,26.94
2024-02-06T03:03:37.819Z,26.95
2024-02-06T03:04:37.861Z,26.95
2024-02-06T03:05:37.856Z,26.94
2024-02-06T03:06:37.803Z,26.97
2024-02-06T03:07:37.863Z,26.93
2024-02-06T03:08:37.801Z,26.93
2024-02-06T03:09:37.863Z,26.94
2024-02-06T03:10:37.982Z,26.94
2024-02-06T03:11:37.867Z,26.94
2024-02-06T03:12:37.908Z,26.95
2024-02-06T03:13:37.975Z,26.95
2024-02-06T03:14:37.898Z,26.93
2024-02-06T03:15:37.896Z,26.93
2024-02-06T03:16:38.008Z,26.91
2024-02-06T03:17:37.966Z,26.94
2024-02-06T03:18:37.996Z,26.93
2024-02-06T03:19:38.089Z,26.94
2024-02-06T03:20:37.944Z,26.91
2024-02-06T03:21:37.996Z,26.91
2024-02-06T03:22:38.118Z,26.90
2024-02-06T03:23:38.063Z,26.88
2024-02-06T03:24:37.986Z,26.91
2024-02-06T03:25:38.006Z,26.93
2024-02-06T03:26:38.025Z,26.90
2024-02-06T03:27:38.088Z,26.91
2024-02-06T03:28:38.101Z,26.91
2024-02-06T03:29:38.073Z,26.91
2024-02-06T03:30:38.078Z,26.91
2024-02-06T03:31:38.164Z,26.93
2024-02-06T03:32:38.041Z,26.90
2024-02-06T03:33:38.205Z,26.91
2024-02-06T03:34:38.281Z,26.91
2024-02-06T03:35:38.084Z,26.88
2024-02-06T03:36:38.167Z,26.90
2024-02-06T03:37:38.226Z,26.88
2024-02-06T03:38:38.115Z,26.88
2024-02-06T03:39:38.145Z,26.90
2024-02-06T03:40:38.275Z,26.90
2024-02-06T03:41:38.171Z,26.88
2024-02-06T03:42:38.181Z,26.88
2024-02-06T03:43:40.882Z,26.90
2024-02-06T03:44:38.171Z,26.88
2024-02-06T03:45:38.200Z,26.91
2024-02-06T03:46:38.272Z,26.90
2024-02-06T03:47:38.242Z,26.87
2024-02-06T03:48:38.219Z,26.90
2024-02-06T03:49:38.286Z,26.87
2024-02-06T03:50:38.177Z,26.88
2024-02-06T03:51:38.179Z,26.87
2024-02-06T03:52:38.218Z,26.85
2024-02-06T03:53:38.221Z,26.87
2024-02-06T03:54:38.215Z,26.88
2024-02-06T03:55:38.275Z,26.90
2024-02-06T03:56:38.231Z,26.87
2024-02-06T03:57:38.238Z,26.87
2024-02-06T03:58:38.273Z,26.85
2024-02-06T03:59:38.194Z,26.85
2024-02-06T04:00:38.191Z,26.83
2024-02-06T04:01:38.300Z,26.85
2024-02-06T04:02:38.282Z,26.87
2024-02-06T04:03:38.215Z,26.85
2024-02-06T04:04:38.246Z,26.85
2024-02-06T04:05:38.260Z,26.84
2024-02-06T04:06:38.323Z,26.85
2024-02-06T04:07:38.319Z,26.85
2024-02-06T04:08:38.202Z,26.85
2024-02-06T04:09:38.209Z,26.85
2024-02-06T04:10:38.253Z,26.87
2024-02-06T04:11:38.229Z,26.84
2024-02-06T04:12:38.215Z,26.84
2024-02-06T04:13:38.333Z,26.84
2024-02-06T04:14:38.237Z,26.85
2024-02-06T04:15:38.286Z,26.84
2024-02-06T04:16:38.268Z,26.83
2024-02-06T04:17:38.226Z,26.85
2024-02-06T04:18:38.299Z,26.84
2024-02-06T04:19:38.327Z,26.84
2024-02-06T04:20:38.237Z,26.84
2024-02-06T04:21:38.226Z,26.83
2024-02-06T04:22:38.404Z,26.83
2024-02-06T04:23:38.291Z,26.83
2024-02-06T04:24:38.210Z,26.83
2024-02-06T04:25:38.260Z,26.81
2024-02-06T04:26:38.296Z,26.83
2024-02-06T04:28:05.893Z,26.80
2024-02-06T04:29:05.837Z,26.81
2024-02-06T04:30:05.803Z,26.81
2024-02-06T04:31:13.130Z,26.81
2024-02-06T04:32:13.054Z,26.78
2024-02-06T04:33:13.097Z,26.78
2024-02-06T04:34:13.372Z,26.81
2024-02-06T04:35:13.086Z,26.78
2024-02-06T04:36:13.048Z,26.81
2024-02-06T04:37:13.104Z,26.80
2024-02-06T04:38:13.060Z,26.83
2024-02-06T04:39:13.069Z,26.84
2024-02-06T04:40:13.127Z,26.80
2024-02-06T04:41:13.069Z,26.81
2024-02-06T04:42:13.044Z,26.78
2024-02-06T04:43:13.086Z,26.80
2024-02-06T04:44:13.102Z,26.78
2024-02-06T04:45:13.174Z,26.83
2024-02-06T04:46:13.102Z,26.78
2024-02-06T04:47:13.085Z,26.80
2024-02-06T04:48:13.197Z,26.80
2024-02-06T04:49:13.187Z,26.77
2024-02-06T04:50:13.200Z,26.80
2024-02-06T04:51:13.118Z,26.80
2024-02-06T04:52:13.196Z,26.78
2024-02-06T04:53:13.124Z,26.80
2024-02-06T04:54:13.101Z,26.77
2024-02-06T04:55:13.141Z,26.78
2024-02-06T04:56:13.101Z,26.80
2024-02-06T04:57:13.102Z,26.78
2024-02-06T04:58:13.144Z,26.78
2024-02-06T04:59:13.082Z,26.77
2024-02-06T05:00:13.093Z,26.77
2024-02-06T05:01:13.156Z,26.78
2024-02-06T05:02:13.130Z,26.77
2024-02-06T05:03:13.082Z,26.77
2024-02-06T05:04:13.213Z,26.77
2024-02-06T05:05:13.232Z,26.75
2024-02-06T05:06:13.232Z,26.73
2024-02-06T05:07:13.176Z,26.73
2024-02-06T05:08:13.199Z,26.70
2024-02-06T05:09:13.078Z,26.70
2024-02-06T05:10:13.168Z,26.71
2024-02-06T05:11:13.127Z,26.68
2024-02-06T05:12:13.110Z,26.70
2024-02-06T05:13:13.202Z,26.67
2024-02-06T05:14:13.120Z,26.67
2024-02-06T05:15:13.116Z,26.67
2024-02-06T05:16:13.179Z,26.71
2024-02-06T05:17:13.114Z,26.70
2024-02-06T05:18:13.225Z,26.70
2024-02-06T05:19:13.257Z,26.68
2024-02-06T05:20:13.129Z,26.68
2024-02-06T05:21:13.109Z,26.73
2024-02-06T05:22:13.174Z,26.70
2024-02-06T05:23:13.129Z,26.70
2024-02-06T05:24:13.188Z,26.68
2024-02-06T05:25:13.258Z,26.71
2024-02-06T05:26:13.259Z,26.70
2024-02-06T05:27:13.272Z,26.68
2024-02-06T05:28:13.379Z,26.70
2024-02-06T05:29:13.387Z,26.70
2024-02-06T05:30:13.392Z,26.71
2024-02-06T05:31:13.448Z,26.70
2024-02-06T05:32:13.484Z,26.68
2024-02-06T05:33:13.528Z,26.68
2024-02-06T05:34:13.612Z,26.73
2024-02-06T05:35:13.729Z,26.70
2024-02-06T05:36:13.608Z,26.71
2024-02-06T05:37:13.653Z,26.70
2024-02-06T05:38:13.658Z,26.70
2024-02-06T05:39:13.662Z,26.71
2024-02-06T05:40:14.295Z,26.70
2024-02-06T05:41:13.774Z,26.68
2024-02-06T05:42:13.777Z,26.70
2024-02-06T05:43:13.834Z,26.68
2024-02-06T05:44:13.865Z,26.67
2024-02-06T05:45:13.897Z,26.67
2024-02-06T05:46:13.964Z,26.68
2024-02-06T05:47:13.982Z,26.67
2024-02-06T05:48:14.042Z,26.68
2024-02-06T05:49:14.159Z,26.65
2024-02-06T05:50:14.301Z,26.65
2024-02-06T05:51:14.112Z,26.67
2024-02-06T05:52:14.177Z,26.68
2024-02-06T05:53:14.200Z,26.67
2024-02-06T05:54:14.247Z,26.65
2024-02-06T05:55:14.329Z,26.68
2024-02-06T05:56:14.283Z,26.65
2024-02-06T05:57:14.329Z,26.64
2024-02-06T05:58:14.434Z,26.65
2024-02-06T05:59:14.419Z,26.67
2024-02-06T06:00:14.482Z,26.65
2024-02-06T06:01:14.527Z,26.63
2024-02-06T06:02:14.627Z,26.67
2024-02-06T06:03:14.577Z,26.64
2024-02-06T06:04:14.763Z,26.64
2024-02-06T06:05:14.731Z,26.64
2024-02-06T06:06:14.871Z,26.64
2024-02-06T06:07:14.793Z,26.65
2024-02-06T06:08:14.780Z,26.63
2024-02-06T06:09:14.847Z,26.64
2024-02-06T06:10:14.878Z,26.61
2024-02-06T06:11:14.905Z,26.64
2024-02-06T06:12:14.927Z,26.63
2024-02-06T06:13:15.062Z,26.63
2024-02-06T06:14:15.038Z,26.65
2024-02-06T06:15:15.025Z,26.63
2024-02-06T06:16:15.138Z,26.65
2024-02-06T06:17:15.217Z,26.63
2024-02-06T06:18:15.201Z,26.64
2024-02-06T06:19:15.322Z,26.64
2024-02-06T06:20:15.380Z,26.63
2024-02-06T06:21:15.282Z,26.63
2024-02-06T06:22:15.371Z,26.61
2024-02-06T06:23:15.356Z,26.63
2024-02-06T06:24:15.416Z,26.63
2024-02-06T06:25:15.588Z,26.65
2024-02-06T06:26:15.470Z,26.64
2024-02-06T06:27:15.569Z,26.65
2024-02-06T06:28:15.622Z,26.65
2024-02-06T06:29:15.595Z,26.65
2024-02-06T06:30:15.699Z,26.67
2024-02-06T06:31:15.703Z,26.65
2024-02-06T06:32:15.725Z,26.65
2024-02-06T06:33:15.857Z,26.65
2024-02-06T06:34:15.877Z,26.67
2024-02-06T06:35:15.886Z,26.71
2024-02-06T06:36:15.860Z,26.70
2024-02-06T06:37:15.919Z,26.73
2024-02-06T06:38:15.913Z,26.70
2024-02-06T06:39:16.001Z,26.70
2024-02-06T06:40:16.032Z,26.74
2024-02-06T06:41:16.032Z,26.75
2024-02-06T06:42:15.993Z,26.78
2024-02-06T06:43:16.073Z,26.81
2024-02-06T06:44:16.098Z,26.83
2024-02-06T06:45:16.066Z,26.84
2024-02-06T06:46:16.194Z,26.85
2024-02-06T06:47:16.134Z,26.88
2024-02-06T06:48:16.114Z,26.88
2024-02-06T06:49:16.392Z,26.88
2024-02-06T06:50:16.202Z,26.85
2024-02-06T06:51:16.156Z,26.84
2024-02-06T06:52:16.196Z,26.83
2024-02-06T06:53:16.209Z,26.80
2024-02-06T06:54:16.265Z,26.78
2024-02-06T06:55:16.785Z,26.75
2024-02-06T06:56:16.340Z,26.73
2024-02-06T06:57:16.368Z,26.70
2024-02-06T06:58:16.443Z,26.71
2024-02-06T06:59:16.471Z,26.65
2024-02-06T07:00:16.738Z,26.61
2024-02-06T07:01:16.635Z,26.63
2024-02-06T07:02:16.586Z,26.70
2024-02-06T07:03:16.710Z,26.70
2024-02-06T07:04:16.775Z,26.73
2024-02-06T07:05:16.702Z,26.75
2024-02-06T07:06:16.745Z,26.78
2024-02-06T07:07:17.312Z,26.81
2024-02-06T07:08:16.782Z,26.83
2024-02-06T07:09:17.247Z,26.88
2024-02-06T07:10:16.899Z,26.87
2024-02-06T07:11:16.800Z,26.94
2024-02-06T07:12:16.816Z,26.97
2024-02-06T07:13:16.875Z,26.97
2024-02-06T07:14:17.249Z,26.98
2024-02-06T07:15:16.827Z,27.02
2024-02-06T07:16:16.858Z,27.02
2024-02-06T07:17:16.843Z,27.04
2024-02-06T07:18:17.021Z,27.08
2024-02-06T07:19:17.313Z,27.12
2024-02-06T07:20:17.015Z,27.11
2024-02-06T07:21:17.095Z,27.15
2024-02-06T07:22:17.168Z,27.16
2024-02-06T07:23:17.226Z,27.18
2024-02-06T07:24:17.241Z,27.18
2024-02-06T07:25:17.319Z,27.21
2024-02-06T07:26:17.403Z,27.19
2024-02-06T07:27:17.530Z,27.22
2024-02-06T07:28:17.564Z,27.22
2024-02-06T07:29:17.592Z,27.28
2024-02-06T07:30:27.279Z,27.29
2024-02-06T07:31:18.652Z,27.31
2024-02-06T07:32:17.665Z,27.33
2024-02-06T07:33:17.753Z,27.33
2024-02-06T07:34:17.717Z,27.36
2024-02-06T07:35:17.690Z,27.38
2024-02-06T07:36:17.636Z,27.38
2024-02-06T07:37:17.701Z,27.35
2024-02-06T07:38:17.660Z,27.38
2024-02-06T07:39:17.772Z,27.38
2024-02-06T07:40:17.917Z,27.36
2024-02-06T07:41:17.807Z,27.38
2024-02-06T07:42:17.889Z,27.36
2024-02-06T07:43:20.620Z,27.32
2024-02-06T07:44:18.254Z,27.25
2024-02-06T07:45:17.949Z,27.14
2024-02-06T07:46:18.333Z,27.09
2024-02-06T07:47:17.940Z,27.02
2024-02-06T07:48:18.421Z,26.99
2024-02-06T07:49:18.054Z,26.98
2024-02-06T07:50:17.944Z,26.95
2024-02-06T07:51:17.888Z,26.98
2024-02-06T07:52:17.955Z,26.98
2024-02-06T07:53:18.319Z,26.98
2024-02-06T07:54:17.907Z,27.04
2024-02-06T07:55:17.963Z,27.06
2024-02-06T07:56:17.932Z,27.15
2024-02-06T07:57:17.943Z,27.22
2024-02-06T07:58:17.909Z,27.33
2024-02-06T07:59:18.234Z,27.41
2024-02-06T08:00:17.913Z,27.43
2024-02-06T08:01:18.131Z,27.45
2024-02-06T08:02:17.999Z,27.45
2024-02-06T08:03:17.891Z,27.48
2024-02-06T08:04:18.268Z,27.49
2024-02-06T08:05:17.965Z,27.50
2024-02-06T08:06:18.069Z,27.53
2024-02-06T08:07:18.285Z,27.54
2024-02-06T08:08:18.103Z,27.54
2024-02-06T08:09:18.276Z,27.59
2024-02-06T08:10:17.955Z,27.62
2024-02-06T08:11:17.922Z,27.64
2024-02-06T08:12:17.918Z,27.63
2024-02-06T08:13:17.974Z,27.67
2024-02-06T08:14:18.308Z,27.66
2024-02-06T08:15:17.946Z,27.66
2024-02-06T08:16:17.967Z,27.69
2024-02-06T08:17:17.958Z,27.69
2024-02-06T08:18:19.909Z,27.70
2024-02-06T08:19:18.026Z,27.69
2024-02-06T08:20:18.122Z,27.70
2024-02-06T08:21:17.936Z,27.70
2024-02-06T08:22:17.974Z,27.72
2024-02-06T08:23:18.761Z,27.69
2024-02-06T08:24:18.716Z,27.73
2024-02-06T08:25:17.983Z,27.72
2024-02-06T08:26:17.909Z,27.72
2024-02-06T08:27:17.923Z,27.70
2024-02-06T08:28:18.356Z,27.74
2024-02-06T08:29:17.943Z,27.74
2024-02-06T08:30:17.966Z,27.74
2024-02-06T08:31:18.050Z,27.72
2024-02-06T08:32:18.077Z,27.72
2024-02-06T08:33:18.324Z,27.73
2024-02-06T08:34:18.199Z,27.67
2024-02-06T08:35:18.413Z,27.64
2024-02-06T08:36:18.310Z,27.64
2024-02-06T08:37:18.396Z,27.62
2024-02-06T08:38:18.838Z,27.60
2024-02-06T08:39:18.406Z,27.59
2024-02-06T08:40:18.466Z,27.62
2024-02-06T08:41:18.505Z,27.60
2024-02-06T08:42:18.553Z,27.63
2024-02-06T08:43:19.194Z,27.62
2024-02-06T08:44:18.752Z,27.63
2024-02-06T08:45:18.658Z,27.64
2024-02-06T08:46:18.746Z,27.69
2024-02-06T08:47:18.761Z,27.69
2024-02-06T08:48:18.793Z,27.72
2024-02-06T08:49:18.900Z,27.72
2024-02-06T08:50:18.884Z,27.76
2024-02-06T08:51:18.879Z,27.77
2024-02-06T08:52:19.281Z,27.77
2024-02-06T08:53:18.915Z,27.77
2024-02-06T08:54:21.158Z,27.79
2024-02-06T08:55:18.977Z,27.80
2024-02-06T08:56:19.019Z,27.80
2024-02-06T08:57:18.944Z,27.80
2024-02-06T08:58:19.039Z,27.82
2024-02-06T08:59:19.310Z,27.86
2024-02-06T09:00:19.032Z,27.82
2024-02-06T09:01:19.133Z,27.82
2024-02-06T09:02:19.724Z,27.82
2024-02-06T09:03:18.989Z,27.83
2024-02-06T09:04:19.067Z,27.83
2024-02-06T09:05:19.302Z,27.84
2024-02-06T09:06:19.052Z,27.80
2024-02-06T09:07:20.298Z,27.84
2024-02-06T09:08:19.956Z,27.83
2024-02-06T09:09:19.267Z,27.86
2024-02-06T09:10:19.064Z,27.86
2024-02-06T09:11:19.721Z,27.87
2024-02-06T09:12:19.264Z,27.84
2024-02-06T09:13:19.320Z,27.84
2024-02-06T09:14:19.002Z,27.86
2024-02-06T09:15:19.057Z,27.87
2024-02-06T09:16:19.021Z,27.90
2024-02-06T09:17:18.991Z,27.90
2024-02-06T09:18:19.500Z,27.93
2024-02-06T09:19:19.064Z,27.90
2024-02-06T09:20:19.251Z,27.91
2024-02-06T09:21:19.321Z,27.93
2024-02-06T09:22:19.081Z,27.96
2024-02-06T09:23:19.003Z,27.99
2024-02-06T09:24:19.300Z,28.00
2024-02-06T09:25:19.049Z,27.99
2024-02-06T09:26:19.026Z,27.99
2024-02-06T09:27:19.006Z,27.94
2024-02-06T09:28:19.038Z,27.91
2024-02-06T09:29:19.282Z,27.90
2024-02-06T09:30:19.084Z,27.84
2024-02-06T09:31:20.423Z,27.89
2024-02-06T09:32:19.105Z,27.76
2024-02-06T09:33:19.237Z,27.63
2024-02-06T09:34:19.383Z,27.46
2024-02-06T09:35:19.264Z,27.36
2024-02-06T09:36:19.776Z,27.15
2024-02-06T09:37:19.312Z,26.94
2024-02-06T09:38:19.377Z,26.71
2024-02-06T09:39:19.489Z,26.50
2024-02-06T09:40:19.820Z,26.33
2024-02-06T09:41:19.501Z,26.15
2024-02-06T09:42:20.065Z,26.07
2024-02-06T09:43:19.558Z,26.07
2024-02-06T09:44:19.450Z,26.07
2024-02-06T09:45:19.807Z,26.10
2024-02-06T09:46:19.523Z,26.19
2024-02-06T09:47:19.788Z,26.23
2024-02-06T09:48:19.753Z,26.33
2024-02-06T09:49:19.858Z,26.36
2024-02-06T09:50:19.807Z,26.44
2024-02-06T09:51:19.827Z,26.46
2024-02-06T09:52:19.904Z,26.46
2024-02-06T09:53:19.920Z,26.42
2024-02-06T09:54:20.003Z,26.37
2024-02-06T09:55:20.420Z,26.37
2024-02-06T09:56:20.786Z,26.36
2024-02-06T09:57:20.222Z,26.40
2024-02-06T09:58:20.337Z,26.46
2024-02-06T09:59:20.345Z,26.51
2024-02-06T10:00:20.424Z,26.54
2024-02-06T10:01:20.882Z,26.61
2024-02-06T10:02:20.493Z,26.65
2024-02-06T10:03:20.473Z,26.71
2024-02-06T10:04:20.694Z,26.75
2024-02-06T10:05:21.310Z,26.80
2024-02-06T10:06:20.572Z,26.85
2024-02-06T10:07:20.575Z,26.91
2024-02-06T10:08:20.543Z,26.97
2024-02-06T10:09:20.562Z,27.02
2024-02-06T10:10:20.682Z,27.05
2024-02-06T10:11:20.808Z,27.11
2024-02-06T10:12:20.833Z,27.14
2024-02-06T10:13:20.875Z,27.16
2024-02-06T10:14:20.895Z,27.19
2024-02-06T10:15:20.933Z,27.21
2024-02-06T10:16:22.895Z,27.25
2024-02-06T10:17:21.050Z,27.25
2024-02-06T10:18:21.294Z,27.29
2024-02-06T10:19:21.306Z,27.31
2024-02-06T10:20:21.320Z,27.33
2024-02-06T10:21:22.626Z,27.36
2024-02-06T10:22:21.388Z,27.36
2024-02-06T10:23:21.403Z,27.36
2024-02-06T10:24:21.512Z,27.41
2024-02-06T10:25:22.324Z,27.41
2024-02-06T10:26:21.799Z,27.41
2024-02-06T10:27:22.273Z,27.43
2024-02-06T10:28:21.780Z,27.43
2024-02-06T10:29:21.699Z,27.45
2024-02-06T10:30:21.806Z,27.46
2024-02-06T10:31:21.911Z,27.46
2024-02-06T10:32:22.636Z,27.43
2024-02-06T10:33:23.010Z,27.46
2024-02-06T10:34:22.124Z,27.48
2024-02-06T10:35:22.492Z,27.48
2024-02-06T10:36:22.104Z,27.50
2024-02-06T10:37:22.178Z,27.49
2024-02-06T10:38:22.228Z,27.50
2024-02-06T10:39:23.576Z,27.49
2024-02-06T10:40:22.714Z,27.49
2024-02-06T10:41:27.545Z,27.49
2024-02-06T10:42:53.815Z,27.52
2024-02-06T10:43:43.327Z,27.52
2024-02-06T10:44:23.658Z,27.53
2024-02-06T10:45:22.624Z,27.53
2024-02-06T10:46:23.706Z,27.54
2024-02-06T10:47:22.838Z,27.53
2024-02-06T10:48:22.726Z,27.56
2024-02-06T10:49:22.771Z,27.54
2024-02-06T10:50:22.952Z,27.54
2024-02-06T10:51:25.244Z,27.56
2024-02-06T10:52:22.611Z,27.56
2024-02-06T10:53:22.836Z,27.56
2024-02-06T10:54:22.615Z,27.56
2024-02-06T10:55:22.692Z,27.54
2024-02-06T10:56:22.613Z,27.54
2024-02-06T10:57:24.817Z,27.56
2024-02-06T10:58:22.639Z,27.54
2024-02-06T10:59:22.624Z,27.56
2024-02-06T11:00:22.703Z,27.57
2024-02-06T11:01:22.751Z,27.57
2024-02-06T11:02:22.884Z,27.60
2024-02-06T11:03:23.755Z,27.56
2024-02-06T11:04:22.925Z,27.59
2024-02-06T11:05:22.773Z,27.59
2024-02-06T11:06:22.750Z,27.57
2024-02-06T11:07:22.800Z,27.57
2024-02-06T11:08:22.827Z,27.57
2024-02-06T11:09:25.869Z,27.56
2024-02-06T11:10:22.936Z,27.59
2024-02-06T11:11:22.832Z,27.59
2024-02-06T11:12:31.434Z,27.56
2024-02-06T11:13:24.359Z,27.57
2024-02-06T11:14:22.873Z,27.56
2024-02-06T11:15:26.179Z,27.59
2024-02-06T11:16:23.093Z,27.54
2024-02-06T11:17:23.828Z,27.56
2024-02-06T11:18:23.030Z,27.57
2024-02-06T11:19:23.387Z,27.54
2024-02-06T11:20:22.904Z,27.53
2024-02-06T11:21:25.932Z,27.54
2024-02-06T11:22:22.931Z,27.53
2024-02-06T11:23:22.883Z,27.54
2024-02-06T11:24:22.886Z,27.50
2024-02-06T11:25:22.902Z,27.50
2024-02-06T11:26:23.334Z,27.54
2024-02-06T11:27:23.312Z,27.49
2024-02-06T11:28:23.372Z,27.52
2024-02-06T11:29:22.879Z,27.52
2024-02-06T11:30:22.879Z,27.49
2024-02-06T11:31:23.454Z,27.49
2024-02-06T11:32:22.881Z,27.48
2024-02-06T11:33:23.060Z,27.49
2024-02-06T11:34:22.976Z,27.46
2024-02-06T11:35:23.005Z,27.48
2024-02-06T11:36:22.965Z,27.45
2024-02-06T11:37:23.153Z,27.46
2024-02-06T11:38:23.103Z,27.49
2024-02-06T11:39:23.735Z,27.46
2024-02-06T11:40:23.193Z,27.48
2024-02-06T11:41:23.229Z,27.43
2024-02-06T11:42:23.374Z,27.46
2024-02-06T11:43:23.394Z,27.46
2024-02-06T11:44:23.844Z,27.42
2024-02-06T11:45:23.459Z,27.42
2024-02-06T11:46:24.019Z,27.41
2024-02-06T11:47:23.603Z,27.41
2024-02-06T11:48:24.519Z,27.42
2024-02-06T11:49:23.887Z,27.41
2024-02-06T11:50:26.313Z,27.39
2024-02-06T11:51:23.801Z,27.41
2024-02-06T11:52:23.848Z,27.39
2024-02-06T11:53:23.799Z,27.39
2024-02-06T11:54:23.785Z,27.38
2024-02-06T11:55:23.822Z,27.38
2024-02-06T11:56:23.822Z,27.38
2024-02-06T11:57:23.851Z,27.38
2024-02-06T11:58:23.903Z,27.36
2024-02-06T11:59:23.816Z,27.38
2024-02-06T12:00:23.776Z,27.36
2024-02-06T12:01:23.927Z,27.38
2024-02-06T12:02:23.975Z,27.36
2024-02-06T12:03:23.884Z,27.38
2024-02-06T12:04:23.830Z,27.39
2024-02-06T12:05:23.864Z,27.41
2024-02-06T12:06:24.008Z,27.36
2024-02-06T12:07:25.319Z,27.39
2024-02-06T12:08:24.092Z,27.38
2024-02-06T12:09:23.930Z,27.36
2024-02-06T12:10:23.825Z,27.39
2024-02-06T12:11:23.885Z,27.42
2024-02-06T12:12:24.010Z,27.42
2024-02-06T12:13:24.384Z,27.42
2024-02-06T12:14:24.057Z,27.41
2024-02-06T12:15:24.130Z,27.41
2024-02-06T12:16:24.221Z,27.42
2024-02-06T12:17:24.273Z,27.41
2024-02-06T12:18:24.406Z,27.43
2024-02-06T12:19:24.423Z,27.42
2024-02-06T12:20:24.507Z,27.43
2024-02-06T12:21:24.488Z,27.42
2024-02-06T12:22:24.890Z,27.43
2024-02-06T12:23:24.610Z,27.41
2024-02-06T12:24:24.683Z,27.43
2024-02-06T12:25:24.762Z,27.43
2024-02-06T12:26:24.756Z,27.43
2024-02-06T12:27:24.843Z,27.41
2024-02-06T12:28:24.925Z,27.43
2024-02-06T12:29:24.983Z,27.42
2024-02-06T12:30:25.024Z,27.43
2024-02-06T12:31:25.055Z,27.42
2024-02-06T12:32:25.208Z,27.41
2024-02-06T12:33:25.324Z,27.43
2024-02-06T12:34:25.446Z,27.42
2024-02-06T12:35:25.307Z,27.38
2024-02-06T12:36:25.356Z,27.41
2024-02-06T12:37:25.512Z,27.42
2024-02-06T12:38:25.465Z,27.41
2024-02-06T12:39:25.523Z,27.38
2024-02-06T12:40:25.611Z,27.38
2024-02-06T12:41:25.678Z,27.36
2024-02-06T12:42:25.691Z,27.38
2024-02-06T12:43:25.835Z,27.38
2024-02-06T12:44:41.218Z,27.36
2024-02-06T12:45:26.828Z,27.36
2024-02-06T12:46:25.866Z,27.36
2024-02-06T12:47:25.831Z,27.41
2024-02-06T12:48:25.870Z,27.36
2024-02-06T12:49:25.901Z,27.36
2024-02-06T12:50:25.948Z,27.38
2024-02-06T12:51:25.825Z,27.36
2024-02-06T12:52:25.855Z,27.36
2024-02-06T12:53:25.872Z,27.38